Thunder radar more information blitzortung!


avis per Pluja more information rain snow radar


Visita la nostra xarxa de llocs de meteo:

Template documentation
and downloads

And another site



Rain From: 16-11-2018 00:00 Until: 09:59 warning for: Rain Level: Yellow info button

Pagina Historial Weather Underground text

Diari Resum Juliol 13, 2017 Unitats:  Imperial    Mètric   Tant
« Previous Dia
SegĂźent Dia »
Diari Setmana Mensual Anual Personalitzada
  Maxima: Minima: Media:
Temperatura: TemperatureF °F 70.3 °F 81.1 °F
Punt de rosada: DewpointF °F 65.6 °F 67.9 °F
Humitat: Humidity % 52 % 65 %
Wind Speed: WindSpeedMPH mph 0.0 mph 5 mph
RĂ fegues de vent: WindSpeedGustMPH mph - -
Vent:- - South
Pression baro: PressureIn in 29.91 in -
Precipitacions: 0.00 in    
Historical Graphs
 
 
Dades de taula per Juliol 13, 2017
Temps Temperatura Punt de rosada Pression baro Vent Wind Speed RĂ fegues de vent Humitat Rainfall Rate (Hourly)
TemperatureF °F DewpointF °F PressureIn in Calm     Humidity % HourlyPrecipIn in
00:03 75.4 °F 67.3 °F 30.06 in NE 2.4 mph 2.4 mph 76 % 0.00 in
00:05 71.6 °F 66.5 °F 30.06 in Calm     84 % 0.00 in
00:15 71.6 °F 66.5 °F 30.06 in Calm     84 % 0.00 in
00:25 71.6 °F 66.8 °F 30.06 in Calm     85 % 0.00 in
00:35 71.4 °F 66.7 °F 30.06 in Calm     85 % 0.00 in
00:45 71.1 °F 66.3 °F 30.06 in Calm     85 % 0.00 in
00:55 70.7 °F 66.0 °F 30.06 in Calm   1.0 mph 85 % 0.00 in
01:05 70.5 °F 65.8 °F 30.06 in West 2.0 mph 2.0 mph 85 % 0.00 in
01:15 70.3 °F 65.6 °F 30.06 in WSW 1.0 mph 2.0 mph 85 % 0.00 in
01:25 70.3 °F 66.0 °F 30.06 in SW 1.0 mph 2.0 mph 86 % 0.00 in
01:35 70.3 °F 66.0 °F 30.06 in Calm   2.0 mph 86 % 0.00 in
01:45 70.5 °F 66.1 °F 30.03 in Calm   1.0 mph 86 % 0.00 in
01:55 70.5 °F 66.5 °F 30.03 in Calm     87 % 0.00 in
02:05 70.3 °F 66.0 °F 30.06 in North 1.0 mph 2.0 mph 86 % 0.00 in
02:15 70.7 °F 66.3 °F 30.03 in NE 1.0 mph 1.0 mph 86 % 0.00 in
02:25 71.2 °F 66.5 °F 30.03 in NE 2.0 mph 3.0 mph 85 % 0.00 in
02:35 71.4 °F 66.7 °F 30.06 in NE 1.0 mph 2.0 mph 85 % 0.00 in
02:45 71.4 °F 66.3 °F 30.06 in ENE 2.0 mph 3.0 mph 84 % 0.00 in
02:55 71.4 °F 66.3 °F 30.06 in ENE 1.0 mph 2.0 mph 84 % 0.00 in
03:05 71.6 °F 66.5 °F 30.06 in Calm   2.0 mph 84 % 0.00 in
03:15 71.8 °F 66.3 °F 30.03 in SW 2.0 mph 3.0 mph 83 % 0.00 in
03:25 71.8 °F 66.7 °F 30.03 in SW 1.0 mph 2.0 mph 84 % 0.00 in
03:35 72.0 °F 66.9 °F 30.06 in SW 1.0 mph 2.0 mph 84 % 0.00 in
03:45 72.7 °F 67.2 °F 30.06 in SW 1.0 mph 2.0 mph 83 % 0.00 in
03:55 73.4 °F 67.6 °F 30.06 in SW 1.0 mph 2.0 mph 82 % 0.00 in
04:05 74.3 °F 68.4 °F 30.06 in SW 1.0 mph 2.0 mph 82 % 0.00 in
04:15 74.8 °F 68.6 °F 30.06 in SW 1.0 mph 2.0 mph 81 % 0.00 in
04:25 75.9 °F 69.3 °F 30.06 in SW 1.0 mph 2.0 mph 80 % 0.00 in
04:35 77.2 °F 69.8 °F 30.06 in SSW 3.0 mph 3.0 mph 78 % 0.00 in
04:45 79.0 °F 70.8 °F 30.06 in SW 2.0 mph 3.0 mph 76 % 0.00 in
04:55 79.9 °F 70.8 °F 30.06 in SW 3.0 mph 6.0 mph 74 % 0.00 in
05:05 79.9 °F 70.4 °F 30.06 in SSW 3.0 mph 5.0 mph 73 % 0.00 in
05:15 80.2 °F 70.0 °F 30.06 in SW 3.0 mph 4.0 mph 71 % 0.00 in
05:25 80.8 °F 69.7 °F 30.06 in SW 3.0 mph 4.0 mph 69 % 0.00 in
05:35 81.3 °F 69.3 °F 30.06 in SW 3.0 mph 6.0 mph 67 % 0.00 in
05:45 82.6 °F 69.6 °F 30.06 in SW 3.0 mph 8.0 mph 65 % 0.00 in
05:55 82.2 °F 68.8 °F 30.06 in SW 3.0 mph 8.0 mph 64 % 0.00 in
06:05 82.8 °F 68.4 °F 30.06 in WSW 7.0 mph 8.0 mph 62 % 0.00 in
06:15 83.8 °F 69.0 °F 30.03 in WSW 6.0 mph 6.0 mph 61 % 0.00 in
06:25 84.7 °F 68.8 °F 30.03 in SW 5.0 mph 8.0 mph 59 % 0.00 in
06:35 85.5 °F 69.5 °F 30.06 in WSW 3.0 mph 7.0 mph 59 % 0.00 in
06:45 84.4 °F 68.0 °F 30.06 in SW 3.0 mph 6.0 mph 58 % 0.00 in
06:55 85.5 °F 68.5 °F 30.06 in SW 7.0 mph 12.0 mph 57 % 0.00 in
07:05 86.0 °F 69.0 °F 30.06 in SW 3.0 mph 6.0 mph 57 % 0.00 in
07:15 86.7 °F 69.7 °F 30.06 in SW 5.0 mph 7.0 mph 57 % 0.00 in
12:22 86.5 °F 69.0 °F 30.06 in SW 5.8 mph 5.8 mph 56 % 0.00 in
12:27 87.3 °F 69.1 °F 30.06 in SW 5.8 mph 5.8 mph 55 % 0.00 in
12:32 86.7 °F 68.6 °F 30.06 in WSW 6.0 mph 6.7 mph 55 % 0.00 in
12:37 86.9 °F 68.8 °F 30.06 in SSW 6.9 mph 6.9 mph 55 % 0.00 in
12:42 86.9 °F 68.8 °F 30.06 in South 12.7 mph 12.7 mph 55 % 0.00 in
12:47 86.7 °F 68.6 °F 30.06 in SW 5.9 mph 5.9 mph 55 % 0.00 in
12:52 86.2 °F 68.1 °F 30.06 in SW 11.5 mph 11.5 mph 55 % 0.00 in
12:57 85.8 °F 68.3 °F 30.06 in SW 8.1 mph 8.1 mph 56 % 0.00 in
13:02 86.4 °F 68.3 °F 30.06 in WSW 9.2 mph 9.2 mph 55 % 0.00 in
13:07 86.7 °F 68.6 °F 30.06 in SW 10.7 mph 10.7 mph 55 % 0.00 in
13:12 85.8 °F 68.3 °F 30.03 in WSW 10.4 mph 10.4 mph 56 % 0.00 in
13:17 86.0 °F 68.5 °F 30.03 in South 8.1 mph 8.1 mph 56 % 0.00 in
13:22 85.8 °F 68.3 °F 30.03 in SW 9.2 mph 9.2 mph 56 % 0.00 in
13:27 86.4 °F 68.8 °F 30.03 in SW 6.9 mph 6.9 mph 56 % 0.00 in
13:32 86.0 °F 68.5 °F 30.03 in SSW 5.8 mph 5.8 mph 56 % 0.00 in
13:37 85.8 °F 68.3 °F 30.03 in SW 10.4 mph 10.4 mph 56 % 0.00 in
13:42 85.8 °F 68.3 °F 30.00 in WSW 8.1 mph 8.1 mph 56 % 0.00 in
13:47 86.5 °F 68.5 °F 30.00 in SW 8.7 mph 8.7 mph 55 % 0.00 in
13:52 86.2 °F 68.1 °F 30.00 in South 8.1 mph 8.1 mph 55 % 0.00 in
13:57 86.0 °F 68.0 °F 30.00 in SW 9.2 mph 9.2 mph 55 % 0.00 in
14:02 86.2 °F 68.1 °F 30.00 in WSW 7.4 mph 7.4 mph 55 % 0.00 in
14:07 86.5 °F 68.5 °F 30.00 in SSW 5.8 mph 5.8 mph 55 % 0.00 in
14:12 85.6 °F 68.1 °F 30.00 in West 10.4 mph 10.4 mph 56 % 0.00 in
14:17 86.0 °F 68.0 °F 30.00 in SW 9.2 mph 9.2 mph 55 % 0.00 in
14:22 86.5 °F 68.5 °F 30.00 in SSW 3.5 mph 3.8 mph 55 % 0.00 in
14:27 87.4 °F 69.3 °F 30.00 in SW 10.4 mph 10.4 mph 55 % 0.00 in
14:32 87.1 °F 69.0 °F 30.00 in ESE 13.8 mph 13.8 mph 55 % 0.00 in
14:37 86.2 °F 68.1 °F 30.00 in SW 12.7 mph 12.7 mph 55 % 0.00 in
14:42 86.2 °F 68.1 °F 30.00 in SW 11.5 mph 11.5 mph 55 % 0.00 in
14:47 85.5 °F 68.0 °F 30.00 in South 8.1 mph 8.1 mph 56 % 0.00 in
14:52 85.5 °F 68.0 °F 30.00 in SW 9.2 mph 9.2 mph 56 % 0.00 in
14:57 85.8 °F 68.3 °F 29.97 in SW 10.4 mph 10.4 mph 56 % 0.00 in
15:02 86.5 °F 69.0 °F 29.97 in SW 5.8 mph 5.8 mph 56 % 0.00 in
15:07 86.2 °F 68.6 °F 29.97 in SW 8.1 mph 8.1 mph 56 % 0.00 in
15:12 86.4 °F 68.8 °F 29.97 in South 9.2 mph 9.2 mph 56 % 0.00 in
15:17 86.9 °F 69.3 °F 29.97 in WSW 5.8 mph 5.8 mph 56 % 0.00 in
15:22 87.6 °F 69.5 °F 30.00 in SSW 8.1 mph 8.1 mph 55 % 0.00 in
15:27 86.5 °F 68.5 °F 30.00 in South 8.1 mph 8.1 mph 55 % 0.00 in
15:32 87.3 °F 69.1 °F 30.00 in SW 8.1 mph 8.1 mph 55 % 0.00 in
15:37 87.8 °F 69.1 °F 30.00 in South 10.4 mph 10.4 mph 54 % 0.00 in
15:42 87.3 °F 69.1 °F 30.00 in SSW 6.9 mph 6.9 mph 55 % 0.00 in
15:44 87.3 °F 69.1 °F 30.00 in South 9.8 mph 9.8 mph 55 % 0.00 in
15:49 86.9 °F 68.8 °F 30.00 in SW 10.4 mph 10.4 mph 55 % 0.00 in
15:54 87.6 °F 69.5 °F 30.00 in SW 6.2 mph 6.2 mph 55 % 0.00 in
15:59 88.5 °F 69.8 °F 30.00 in WSW 6.9 mph 6.9 mph 54 % 0.00 in
16:04 87.3 °F 68.6 °F 30.00 in SSW 12.7 mph 12.7 mph 54 % 0.00 in
16:09 86.5 °F 68.5 °F 29.97 in SW 9.2 mph 9.2 mph 55 % 0.00 in
16:14 86.5 °F 68.5 °F 29.97 in SW 9.2 mph 9.2 mph 55 % 0.00 in
16:19 87.1 °F 69.0 °F 29.97 in SSE 9.2 mph 9.2 mph 55 % 0.00 in
16:24 87.4 °F 69.3 °F 29.97 in SSW 10.7 mph 10.7 mph 55 % 0.00 in
16:29 86.5 °F 68.5 °F 29.97 in South 5.8 mph 5.8 mph 55 % 0.00 in
16:34 88.0 °F 69.3 °F 29.97 in SW 4.3 mph 4.3 mph 54 % 0.00 in
16:39 88.5 °F 69.8 °F 29.97 in SW 10.0 mph 10.0 mph 54 % 0.00 in
16:44 88.0 °F 69.3 °F 29.97 in South 5.8 mph 5.8 mph 54 % 0.00 in
16:49 88.5 °F 69.2 °F 29.97 in SW 4.6 mph 4.6 mph 53 % 0.00 in
16:54 88.3 °F 69.0 °F 29.97 in SSW 6.4 mph 6.4 mph 53 % 0.00 in
16:59 88.7 °F 69.4 °F 29.97 in West 4.6 mph 4.6 mph 53 % 0.00 in
17:04 89.1 °F 69.7 °F 29.97 in West 6.9 mph 6.9 mph 53 % 0.00 in
17:09 89.2 °F 69.3 °F 29.94 in SSE 5.8 mph 5.8 mph 52 % 0.00 in
17:14 88.2 °F 68.3 °F 29.94 in SW 5.8 mph 5.8 mph 52 % 0.00 in
17:19 88.9 °F 69.5 °F 29.94 in SW 6.0 mph 6.0 mph 53 % 0.00 in
17:24 89.1 °F 69.1 °F 29.94 in SSW 6.9 mph 6.9 mph 52 % 0.00 in
17:29 89.2 °F 69.3 °F 29.94 in South 5.9 mph 5.9 mph 52 % 0.00 in
17:34 89.8 °F 70.4 °F 29.94 in SW 8.1 mph 8.1 mph 53 % 0.00 in
17:39 89.4 °F 69.5 °F 29.94 in SSW 8.1 mph 8.1 mph 52 % 0.00 in
17:44 89.2 °F 69.3 °F 29.94 in WSW 7.6 mph 7.6 mph 52 % 0.00 in
17:49 89.2 °F 69.3 °F 29.94 in SW 4.6 mph 4.6 mph 52 % 0.00 in
17:54 89.4 °F 69.5 °F 29.94 in NNE 8.1 mph 8.1 mph 52 % 0.00 in
17:59 89.2 °F 69.3 °F 29.94 in SW 2.3 mph 2.3 mph 52 % 0.00 in
18:04 88.5 °F 68.6 °F 29.94 in South 5.8 mph 5.8 mph 52 % 0.00 in
18:09 88.7 °F 69.4 °F 29.94 in SSW 5.8 mph 5.8 mph 53 % 0.00 in
18:14 88.5 °F 69.2 °F 29.94 in SSW 4.6 mph 4.6 mph 53 % 0.00 in
18:19 88.3 °F 69.0 °F 29.94 in SSW 3.5 mph 3.6 mph 53 % 0.00 in
18:24 87.8 °F 68.5 °F 29.94 in SW 8.1 mph 8.1 mph 53 % 0.00 in
18:29 87.8 °F 68.5 °F 29.94 in SSE 6.9 mph 6.9 mph 53 % 0.00 in
18:34 88.3 °F 68.5 °F 29.94 in South 4.6 mph 4.6 mph 52 % 0.00 in
18:35 88.2 °F 68.3 °F 29.94 in SW 7.4 mph 7.4 mph 52 % 0.00 in
18:40 87.6 °F 68.4 °F 29.94 in SW 5.8 mph 5.8 mph 53 % 0.00 in
18:45 87.3 °F 68.0 °F 29.94 in ESE 4.6 mph 4.6 mph 53 % 0.00 in
18:50 87.1 °F 67.9 °F 29.94 in SW 6.9 mph 6.9 mph 53 % 0.00 in
18:55 86.7 °F 67.0 °F 29.94 in SW 5.9 mph 5.9 mph 52 % 0.00 in
19:00 86.2 °F 66.5 °F 29.94 in South 6.9 mph 6.9 mph 52 % 0.00 in
19:05 86.2 °F 67.0 °F 29.94 in SW 5.8 mph 5.8 mph 53 % 0.00 in
19:10 86.5 °F 67.4 °F 29.94 in SSW 8.5 mph 8.5 mph 53 % 0.00 in
19:15 86.5 °F 67.4 °F 29.94 in SW 3.6 mph 3.6 mph 53 % 0.00 in
19:20 86.5 °F 67.4 °F 29.94 in SW 4.3 mph 4.3 mph 53 % 0.00 in
19:25 86.7 °F 67.5 °F 29.94 in WSW 5.8 mph 5.8 mph 53 % 0.00 in
19:30 86.5 °F 67.4 °F 29.94 in WSW 5.8 mph 5.8 mph 53 % 0.00 in
19:35 85.8 °F 67.3 °F 29.94 in West 5.8 mph 5.8 mph 54 % 0.00 in
19:40 85.6 °F 67.1 °F 29.91 in SSW 4.6 mph 4.6 mph 54 % 0.00 in
19:41 85.6 °F 67.1 °F 29.91 in SSW 6.4 mph 6.4 mph 54 % 0.00 in
19:45 75.9 °F 69.3 °F 30.00 in ESE 3.0 mph 5.0 mph 80 % 0.00 in
19:46 85.1 °F 66.6 °F 29.91 in SSW 5.8 mph 5.8 mph 54 % 0.00 in
19:51 84.9 °F 66.4 °F 29.91 in SSW 5.9 mph 5.9 mph 54 % 0.00 in
19:55 75.7 °F 69.1 °F 30.00 in East 2.0 mph 4.0 mph 80 % 0.00 in
19:56 84.7 °F 66.3 °F 29.97 in WSW 5.8 mph 5.8 mph 54 % 0.00 in
20:01 84.6 °F 66.1 °F 29.97 in SW 6.0 mph 6.0 mph 54 % 0.00 in
20:06 84.4 °F 65.9 °F 29.97 in SSE 4.6 mph 4.6 mph 54 % 0.00 in
20:11 84.2 °F 65.8 °F 29.94 in SW 4.6 mph 4.6 mph 54 % 0.00 in
20:15 75.9 °F 69.7 °F 30.00 in East 3.0 mph 5.0 mph 81 % 0.00 in
20:16 83.8 °F 65.9 °F 29.94 in SW 4.6 mph 4.6 mph 55 % 0.00 in
20:21 84.0 °F 66.1 °F 29.94 in SW 5.8 mph 5.8 mph 55 % 0.00 in
20:25 75.7 °F 69.5 °F 30.00 in East 2.0 mph 4.0 mph 81 % 0.00 in
20:26 83.7 °F 66.3 °F 29.94 in WSW 2.4 mph 2.4 mph 56 % 0.00 in
20:31 83.7 °F 66.3 °F 29.94 in WSW 2.6 mph 2.6 mph 56 % 0.00 in
20:35 75.9 °F 69.3 °F 30.00 in East 1.0 mph 2.0 mph 80 % 0.00 in
20:36 83.1 °F 65.8 °F 29.94 in SW 3.3 mph 3.3 mph 56 % 0.00 in
20:41 82.9 °F 65.6 °F 29.91 in South 3.5 mph 3.5 mph 56 % 0.00 in
20:45 75.9 °F 69.3 °F 30.03 in ENE 3.0 mph 4.0 mph 80 % 0.00 in
20:46 82.6 °F 65.8 °F 29.91 in East 5.8 mph 5.8 mph 57 % 0.00 in
20:51 81.3 °F 66.1 °F 29.91 in SE 5.8 mph 5.8 mph 60 % 0.00 in
20:55 75.9 °F 69.3 °F 30.03 in East 2.0 mph 3.0 mph 80 % 0.00 in
20:56 80.8 °F 66.5 °F 29.94 in ESE 10.4 mph 10.4 mph 62 % 0.00 in
21:01 79.9 °F 67.1 °F 29.94 in ESE 9.2 mph 9.2 mph 65 % 0.00 in
21:05 75.9 °F 69.3 °F 30.03 in East 3.0 mph 3.0 mph 80 % 0.00 in
21:06 79.7 °F 67.3 °F 29.94 in ESE 8.1 mph 8.1 mph 66 % 0.00 in
21:11 79.5 °F 68.0 °F 29.94 in ESE 10.4 mph 10.4 mph 68 % 0.00 in
21:15 75.7 °F 69.1 °F 30.00 in East 3.0 mph 3.0 mph 80 % 0.00 in
21:16 79.2 °F 67.7 °F 29.94 in SSE 6.9 mph 6.9 mph 68 % 0.00 in
21:21 78.8 °F 67.8 °F 29.94 in ENE 6.9 mph 6.9 mph 69 % 0.00 in
21:25 75.7 °F 69.1 °F 30.00 in East 3.0 mph 5.0 mph 80 % 0.00 in
21:26 78.4 °F 67.8 °F 29.94 in ENE 5.8 mph 5.8 mph 70 % 0.00 in
21:31 78.3 °F 68.1 °F 29.94 in SE 6.0 mph 6.0 mph 71 % 0.00 in
21:35 75.6 °F 69.0 °F 30.00 in East 3.0 mph 4.0 mph 80 % 0.00 in
21:36 78.3 °F 68.1 °F 29.94 in ESE 5.8 mph 5.8 mph 71 % 0.00 in
21:41 78.3 °F 68.1 °F 29.97 in ESE 5.8 mph 5.8 mph 71 % 0.00 in
21:45 75.6 °F 69.3 °F 30.00 in East 2.0 mph 4.0 mph 81 % 0.00 in
21:46 78.3 °F 68.1 °F 29.97 in ENE 4.6 mph 4.6 mph 71 % 0.00 in
21:51 78.3 °F 68.1 °F 29.97 in East 5.8 mph 5.8 mph 71 % 0.00 in
21:55 75.4 °F 69.1 °F 30.00 in ENE 2.0 mph 3.0 mph 81 % 0.00 in
21:56 78.1 °F 67.9 °F 29.97 in NNW 2.3 mph 2.3 mph 71 % 0.00 in
22:01 78.1 °F 67.9 °F 29.97 in ESE 4.6 mph 4.6 mph 71 % 0.00 in
22:05 75.4 °F 69.1 °F 29.97 in East 1.0 mph 4.0 mph 81 % 0.00 in
22:06 78.1 °F 67.9 °F 29.97 in ESE 3.5 mph 3.5 mph 71 % 0.00 in
22:11 77.9 °F 67.7 °F 30.00 in ESE 4.6 mph 4.6 mph 71 % 0.00 in
22:15 75.4 °F 69.1 °F 30.00 in East 2.0 mph 3.0 mph 81 % 0.00 in
22:16 77.7 °F 68.0 °F 30.00 in ENE 5.8 mph 5.8 mph 72 % 0.00 in
22:21 77.7 °F 68.0 °F 30.00 in ENE 4.6 mph 4.6 mph 72 % 0.00 in
22:25 75.6 °F 69.3 °F 30.00 in East 2.0 mph 3.0 mph 81 % 0.00 in
22:26 77.7 °F 68.0 °F 30.00 in East 3.5 mph 3.5 mph 72 % 0.00 in
22:31 77.5 °F 67.8 °F 30.00 in East 4.6 mph 4.6 mph 72 % 0.00 in
22:35 75.6 °F 69.3 °F 30.00 in East 2.0 mph 2.0 mph 81 % 0.00 in
22:36 77.4 °F 67.6 °F 30.00 in East 3.6 mph 3.6 mph 72 % 0.00 in
22:41 77.2 °F 67.5 °F 30.00 in ESE 2.3 mph 2.3 mph 72 % 0.00 in
22:45 75.6 °F 69.0 °F 30.00 in ESE 1.0 mph 3.0 mph 80 % 0.00 in
22:46 77.2 °F 67.5 °F 30.00 in ESE 3.5 mph 3.5 mph 72 % 0.00 in
22:51 77.2 °F 67.5 °F 30.00 in ESE 2.0 mph 2.0 mph 72 % 0.00 in
22:55 75.6 °F 69.0 °F 30.00 in Calm   4.0 mph 80 % 0.00 in
22:56 77.0 °F 66.9 °F 30.00 in ESE 1.4 mph 1.4 mph 71 % 0.00 in
23:01 77.0 °F 67.3 °F 30.00 in ESE 2.3 mph 2.3 mph 72 % 0.00 in
23:05 75.6 °F 69.0 °F 30.00 in Calm   1.0 mph 80 % 0.00 in
23:06 76.8 °F 67.5 °F 30.00 in East 2.4 mph 2.4 mph 73 % 0.00 in
23:11 76.8 °F 68.3 °F 29.97 in ESE 6.2 mph 6.2 mph 75 % 0.00 in
23:15 75.6 °F 69.0 °F 30.00 in Calm   2.0 mph 80 % 0.00 in
23:16 76.6 °F 68.5 °F 29.97 in ENE 4.0 mph 4.0 mph 76 % 0.00 in
23:21 76.6 °F 68.5 °F 29.97 in ENE 4.6 mph 4.6 mph 76 % 0.00 in
23:25 75.6 °F 69.0 °F 30.00 in East 1.0 mph 2.0 mph 80 % 0.00 in
23:26 76.5 °F 68.3 °F 30.00 in ESE 4.7 mph 4.7 mph 76 % 0.00 in
23:31 76.3 °F 68.5 °F 30.00 in NNE 3.5 mph 3.5 mph 77 % 0.00 in
23:35 75.6 °F 69.0 °F 30.00 in East 3.0 mph 3.0 mph 80 % 0.00 in
23:36 76.3 °F 68.5 °F 30.00 in East 2.3 mph 2.3 mph 77 % 0.00 in
23:41 76.3 °F 68.5 °F 30.03 in East 2.3 mph 2.3 mph 77 % 0.00 in
23:45 75.4 °F 68.8 °F 30.00 in East 2.0 mph 3.0 mph 80 % 0.00 in
23:46 76.1 °F 68.7 °F 30.03 in ESE 5.8 mph 5.8 mph 78 % 0.00 in
23:51 76.1 °F 68.7 °F 30.03 in NE 3.5 mph 3.5 mph 78 % 0.00 in
23:55 75.6 °F 68.6 °F 30.00 in Calm   2.0 mph 79 % 0.00 in
23:56 76.1 °F 68.7 °F 30.03 in NE 4.0 mph 4.0 mph 78 % 0.00 in
Meteo Sesrovires
Elogis d' Weather Underground - 1.75 mb

Guio original per  Jim McMurry - jmcmurry@mwt.net Adaptat per a la plantilla per  Wim van der Kuil - Leuven-Template.eu

Trobareu la nostra informacio del temps tambe a:

Weather Underground

AWEKAS